sensor_id;sensor_type;location;lat;lon;timestamp;P1;durP1;ratioP1;P2;durP2;ratioP2
8478;SDS011;4276;49.354;6.804;2023-01-29T00:00:03;3.25;;;3.05;;
8478;SDS011;4276;49.354;6.804;2023-01-29T00:02:35;4.80;;;4.40;;
8478;SDS011;4276;49.354;6.804;2023-01-29T00:05:02;4.60;;;4.22;;
8478;SDS011;4276;49.354;6.804;2023-01-29T00:07:50;4.20;;;3.80;;
8478;SDS011;4276;49.354;6.804;2023-01-29T00:10:17;3.75;;;3.47;;
8478;SDS011;4276;49.354;6.804;2023-01-29T00:12:43;4.03;;;3.72;;
8478;SDS011;4276;49.354;6.804;2023-01-29T00:15:10;3.80;;;3.50;;
8478;SDS011;4276;49.354;6.804;2023-01-29T00:17:37;3.75;;;3.45;;
8478;SDS011;4276;49.354;6.804;2023-01-29T00:20:03;3.60;;;3.30;;
8478;SDS011;4276;49.354;6.804;2023-01-29T00:22:30;3.80;;;3.60;;
8478;SDS011;4276;49.354;6.804;2023-01-29T00:24:57;3.90;;;3.60;;
8478;SDS011;4276;49.354;6.804;2023-01-29T00:27:23;4.00;;;3.70;;
8478;SDS011;4276;49.354;6.804;2023-01-29T00:29:50;3.60;;;3.40;;
8478;SDS011;4276;49.354;6.804;2023-01-29T00:32:36;3.80;;;3.50;;
8478;SDS011;4276;49.354;6.804;2023-01-29T00:35:03;3.60;;;3.30;;
8478;SDS011;4276;49.354;6.804;2023-01-29T00:37:30;3.53;;;3.33;;
8478;SDS011;4276;49.354;6.804;2023-01-29T00:39:57;3.97;;;3.67;;
8478;SDS011;4276;49.354;6.804;2023-01-29T00:42:23;3.73;;;3.43;;
8478;SDS011;4276;49.354;6.804;2023-01-29T00:45:09;3.90;;;3.60;;
8478;SDS011;4276;49.354;6.804;2023-01-29T00:47:36;3.60;;;3.40;;
8478;SDS011;4276;49.354;6.804;2023-01-29T00:50:07;3.88;;;3.58;;
8478;SDS011;4276;49.354;6.804;2023-01-29T00:52:36;3.67;;;3.38;;
8478;SDS011;4276;49.354;6.804;2023-01-29T00:55:03;3.70;;;3.50;;
8478;SDS011;4276;49.354;6.804;2023-01-29T00:57:31;4.20;;;3.90;;
8478;SDS011;4276;49.354;6.804;2023-01-29T00:59:58;4.47;;;4.07;;
8478;SDS011;4276;49.354;6.804;2023-01-29T01:02:25;4.33;;;4.03;;
8478;SDS011;4276;49.354;6.804;2023-01-29T01:05:11;4.23;;;3.93;;
8478;SDS011;4276;49.354;6.804;2023-01-29T01:07:43;3.90;;;3.60;;
8478;SDS011;4276;49.354;6.804;2023-01-29T01:10:15;4.00;;;3.78;;
8478;SDS011;4276;49.354;6.804;2023-01-29T01:12:51;3.80;;;3.60;;
8478;SDS011;4276;49.354;6.804;2023-01-29T01:15:20;4.07;;;3.87;;
8478;SDS011;4276;49.354;6.804;2023-01-29T01:17:50;4.03;;;3.73;;
8478;SDS011;4276;49.354;6.804;2023-01-29T01:20:21;3.80;;;3.60;;
8478;SDS011;4276;49.354;6.804;2023-01-29T01:22:48;3.97;;;3.77;;
8478;SDS011;4276;49.354;6.804;2023-01-29T01:25:15;4.30;;;4.00;;
8478;SDS011;4276;49.354;6.804;2023-01-29T01:27:42;4.63;;;4.22;;
8478;SDS011;4276;49.354;6.804;2023-01-29T01:30:14;5.03;;;4.53;;
8478;SDS011;4276;49.354;6.804;2023-01-29T01:32:41;3.90;;;3.70;;
8478;SDS011;4276;49.354;6.804;2023-01-29T01:35:09;3.70;;;3.50;;
8478;SDS011;4276;49.354;6.804;2023-01-29T01:37:36;3.80;;;3.60;;
8478;SDS011;4276;49.354;6.804;2023-01-29T01:40:06;3.80;;;3.50;;
8478;SDS011;4276;49.354;6.804;2023-01-29T01:42:38;4.13;;;3.83;;
8478;SDS011;4276;49.354;6.804;2023-01-29T01:45:05;3.63;;;3.42;;
8478;SDS011;4276;49.354;6.804;2023-01-29T01:47:52;3.90;;;3.60;;
8478;SDS011;4276;49.354;6.804;2023-01-29T01:50:23;3.67;;;3.37;;
8478;SDS011;4276;49.354;6.804;2023-01-29T01:52:52;3.50;;;3.30;;
8478;SDS011;4276;49.354;6.804;2023-01-29T01:55:22;3.85;;;3.55;;
8478;SDS011;4276;49.354;6.804;2023-01-29T01:57:53;3.75;;;3.45;;
8478;SDS011;4276;49.354;6.804;2023-01-29T02:00:22;3.97;;;3.67;;
8478;SDS011;4276;49.354;6.804;2023-01-29T02:02:50;3.87;;;3.67;;
8478;SDS011;4276;49.354;6.804;2023-01-29T02:05:36;3.50;;;3.30;;
8478;SDS011;4276;49.354;6.804;2023-01-29T02:08:23;3.90;;;3.60;;
8478;SDS011;4276;49.354;6.804;2023-01-29T02:11:21;3.70;;;3.50;;
8478;SDS011;4276;49.354;6.804;2023-01-29T02:13:49;4.23;;;3.93;;
8478;SDS011;4276;49.354;6.804;2023-01-29T02:16:19;4.17;;;3.80;;
8478;SDS011;4276;49.354;6.804;2023-01-29T02:18:47;4.40;;;4.00;;
8478;SDS011;4276;49.354;6.804;2023-01-29T02:35:10;4.00;;;3.80;;
8478;SDS011;4276;49.354;6.804;2023-01-29T02:38:01;4.60;;;4.30;;
8478;SDS011;4276;49.354;6.804;2023-01-29T02:43:07;4.73;;;4.43;;
8478;SDS011;4276;49.354;6.804;2023-01-29T02:46:27;4.67;;;4.37;;
8478;SDS011;4276;49.354;6.804;2023-01-29T02:48:36;4.60;;;4.30;;
8478;SDS011;4276;49.354;6.804;2023-01-29T02:51:30;4.33;;;3.93;;
8478;SDS011;4276;49.354;6.804;2023-01-29T02:56:39;4.10;;;3.80;;
8478;SDS011;4276;49.354;6.804;2023-01-29T02:59:21;4.30;;;4.00;;
8478;SDS011;4276;49.354;6.804;2023-01-29T03:02:04;4.40;;;4.10;;
8478;SDS011;4276;49.354;6.804;2023-01-29T03:04:35;4.60;;;4.30;;
8478;SDS011;4276;49.354;6.804;2023-01-29T03:07:09;4.60;;;4.20;;
8478;SDS011;4276;49.354;6.804;2023-01-29T03:10:00;4.67;;;4.27;;
8478;SDS011;4276;49.354;6.804;2023-01-29T03:12:28;5.23;;;4.83;;
8478;SDS011;4276;49.354;6.804;2023-01-29T03:15:02;4.53;;;4.23;;
8478;SDS011;4276;49.354;6.804;2023-01-29T03:17:41;4.87;;;4.50;;
8478;SDS011;4276;49.354;6.804;2023-01-29T03:20:17;4.40;;;4.10;;
8478;SDS011;4276;49.354;6.804;2023-01-29T03:22:48;4.93;;;4.53;;
8478;SDS011;4276;49.354;6.804;2023-01-29T03:25:18;5.47;;;4.63;;
8478;SDS011;4276;49.354;6.804;2023-01-29T03:28:04;8.83;;;6.93;;
8478;SDS011;4276;49.354;6.804;2023-01-29T03:30:54;9.60;;;8.37;;
8478;SDS011;4276;49.354;6.804;2023-01-29T03:33:44;8.83;;;7.97;;
8478;SDS011;4276;49.354;6.804;2023-01-29T03:36:36;8.97;;;8.07;;
8478;SDS011;4276;49.354;6.804;2023-01-29T03:39:10;7.80;;;7.10;;
8478;SDS011;4276;49.354;6.804;2023-01-29T03:41:39;7.40;;;6.70;;
8478;SDS011;4276;49.354;6.804;2023-01-29T03:44:22;8.07;;;7.27;;
8478;SDS011;4276;49.354;6.804;2023-01-29T03:52:43;6.87;;;6.17;;
8478;SDS011;4276;49.354;6.804;2023-01-29T03:55:32;6.10;;;5.60;;
8478;SDS011;4276;49.354;6.804;2023-01-29T03:58:20;6.23;;;5.63;;
8478;SDS011;4276;49.354;6.804;2023-01-29T04:00:51;5.60;;;5.20;;
8478;SDS011;4276;49.354;6.804;2023-01-29T04:03:46;5.53;;;5.00;;
8478;SDS011;4276;49.354;6.804;2023-01-29T04:06:27;4.67;;;4.27;;
8478;SDS011;4276;49.354;6.804;2023-01-29T04:08:57;4.60;;;4.23;;
8478;SDS011;4276;49.354;6.804;2023-01-29T04:11:26;4.87;;;4.47;;
8478;SDS011;4276;49.354;6.804;2023-01-29T04:13:53;4.33;;;4.03;;
8478;SDS011;4276;49.354;6.804;2023-01-29T04:16:22;6.33;;;4.43;;
8478;SDS011;4276;49.354;6.804;2023-01-29T04:18:52;5.30;;;4.80;;
8478;SDS011;4276;49.354;6.804;2023-01-29T04:21:19;5.27;;;4.87;;
8478;SDS011;4276;49.354;6.804;2023-01-29T04:23:46;5.30;;;4.90;;
8478;SDS011;4276;49.354;6.804;2023-01-29T04:31:22;4.83;;;4.47;;
8478;SDS011;4276;49.354;6.804;2023-01-29T04:34:27;4.90;;;4.60;;
8478;SDS011;4276;49.354;6.804;2023-01-29T04:37:06;5.03;;;4.63;;
8478;SDS011;4276;49.354;6.804;2023-01-29T04:39:46;4.47;;;4.17;;
8478;SDS011;4276;49.354;6.804;2023-01-29T04:44:57;4.40;;;4.10;;
8478;SDS011;4276;49.354;6.804;2023-01-29T04:47:59;5.27;;;4.83;;
8478;SDS011;4276;49.354;6.804;2023-01-29T04:50:33;5.57;;;5.07;;
8478;SDS011;4276;49.354;6.804;2023-01-29T04:53:08;5.50;;;5.10;;
8478;SDS011;4276;49.354;6.804;2023-01-29T04:55:43;5.63;;;5.13;;
8478;SDS011;4276;49.354;6.804;2023-01-29T05:00:59;5.33;;;4.93;;
8478;SDS011;4276;49.354;6.804;2023-01-29T05:03:27;6.00;;;5.33;;
8478;SDS011;4276;49.354;6.804;2023-01-29T05:05:55;5.67;;;5.17;;
8478;SDS011;4276;49.354;6.804;2023-01-29T05:08:23;5.30;;;4.90;;
8478;SDS011;4276;49.354;6.804;2023-01-29T05:10:51;5.30;;;4.80;;
8478;SDS011;4276;49.354;6.804;2023-01-29T05:13:19;5.60;;;4.90;;
8478;SDS011;4276;49.354;6.804;2023-01-29T05:15:48;5.37;;;4.50;;
8478;SDS011;4276;49.354;6.804;2023-01-29T05:18:17;4.53;;;4.13;;
8478;SDS011;4276;49.354;6.804;2023-01-29T05:20:44;4.43;;;4.13;;
8478;SDS011;4276;49.354;6.804;2023-01-29T05:23:14;4.23;;;3.87;;
8478;SDS011;4276;49.354;6.804;2023-01-29T05:25:41;5.00;;;4.60;;
8478;SDS011;4276;49.354;6.804;2023-01-29T05:28:08;3.93;;;3.70;;
8478;SDS011;4276;49.354;6.804;2023-01-29T05:35:38;4.10;;;3.80;;
8478;SDS011;4276;49.354;6.804;2023-01-29T05:38:04;4.20;;;3.90;;
8478;SDS011;4276;49.354;6.804;2023-01-29T05:40:30;4.60;;;4.30;;
8478;SDS011;4276;49.354;6.804;2023-01-29T05:42:57;4.00;;;3.70;;
8478;SDS011;4276;49.354;6.804;2023-01-29T05:45:23;4.20;;;3.83;;
8478;SDS011;4276;49.354;6.804;2023-01-29T05:47:54;4.73;;;4.43;;
8478;SDS011;4276;49.354;6.804;2023-01-29T05:50:21;4.20;;;3.80;;
8478;SDS011;4276;49.354;6.804;2023-01-29T05:52:47;3.90;;;3.60;;
8478;SDS011;4276;49.354;6.804;2023-01-29T05:55:13;4.20;;;3.80;;
8478;SDS011;4276;49.354;6.804;2023-01-29T05:57:40;4.20;;;3.90;;
8478;SDS011;4276;49.354;6.804;2023-01-29T06:00:07;4.73;;;4.33;;
8478;SDS011;4276;49.354;6.804;2023-01-29T06:02:34;4.93;;;4.47;;
8478;SDS011;4276;49.354;6.804;2023-01-29T06:05:00;5.50;;;5.10;;
8478;SDS011;4276;49.354;6.804;2023-01-29T06:07:27;5.77;;;5.30;;
8478;SDS011;4276;49.354;6.804;2023-01-29T06:09:53;4.97;;;4.67;;
8478;SDS011;4276;49.354;6.804;2023-01-29T06:12:20;5.27;;;4.87;;
8478;SDS011;4276;49.354;6.804;2023-01-29T06:14:46;4.80;;;4.50;;
8478;SDS011;4276;49.354;6.804;2023-01-29T06:17:13;5.10;;;4.70;;
8478;SDS011;4276;49.354;6.804;2023-01-29T06:19:39;4.93;;;4.53;;
8478;SDS011;4276;49.354;6.804;2023-01-29T06:22:06;5.07;;;4.60;;
8478;SDS011;4276;49.354;6.804;2023-01-29T06:24:32;4.30;;;4.07;;
8478;SDS011;4276;49.354;6.804;2023-01-29T06:26:59;4.90;;;4.60;;
8478;SDS011;4276;49.354;6.804;2023-01-29T06:29:25;5.57;;;5.17;;
8478;SDS011;4276;49.354;6.804;2023-01-29T06:31:51;6.00;;;5.50;;
8478;SDS011;4276;49.354;6.804;2023-01-29T06:34:18;7.07;;;6.37;;
8478;SDS011;4276;49.354;6.804;2023-01-29T06:36:45;7.00;;;6.30;;
8478;SDS011;4276;49.354;6.804;2023-01-29T06:39:11;7.97;;;7.17;;
8478;SDS011;4276;49.354;6.804;2023-01-29T06:41:38;10.13;;;9.03;;
8478;SDS011;4276;49.354;6.804;2023-01-29T06:44:04;12.30;;;10.83;;
8478;SDS011;4276;49.354;6.804;2023-01-29T06:46:31;9.60;;;8.70;;
8478;SDS011;4276;49.354;6.804;2023-01-29T06:48:58;6.87;;;6.27;;
8478;SDS011;4276;49.354;6.804;2023-01-29T06:51:27;6.30;;;5.80;;
8478;SDS011;4276;49.354;6.804;2023-01-29T06:53:54;6.80;;;6.20;;
8478;SDS011;4276;49.354;6.804;2023-01-29T06:56:21;6.97;;;6.37;;
8478;SDS011;4276;49.354;6.804;2023-01-29T06:58:48;7.07;;;6.47;;
8478;SDS011;4276;49.354;6.804;2023-01-29T07:01:15;6.80;;;6.20;;
8478;SDS011;4276;49.354;6.804;2023-01-29T07:03:59;6.87;;;6.27;;
8478;SDS011;4276;49.354;6.804;2023-01-29T07:06:29;6.90;;;6.30;;
8478;SDS011;4276;49.354;6.804;2023-01-29T07:08:56;6.83;;;6.23;;
8478;SDS011;4276;49.354;6.804;2023-01-29T07:11:22;7.63;;;6.97;;
8478;SDS011;4276;49.354;6.804;2023-01-29T07:13:49;8.33;;;7.63;;
8478;SDS011;4276;49.354;6.804;2023-01-29T07:16:15;7.07;;;6.57;;
8478;SDS011;4276;49.354;6.804;2023-01-29T07:18:42;7.23;;;6.63;;
8478;SDS011;4276;49.354;6.804;2023-01-29T07:21:08;6.70;;;6.20;;
8478;SDS011;4276;49.354;6.804;2023-01-29T07:23:35;6.33;;;5.93;;
8478;SDS011;4276;49.354;6.804;2023-01-29T07:26:02;6.30;;;5.80;;
8478;SDS011;4276;49.354;6.804;2023-01-29T07:28:29;5.73;;;5.27;;
8478;SDS011;4276;49.354;6.804;2023-01-29T07:30:56;6.47;;;5.97;;
8478;SDS011;4276;49.354;6.804;2023-01-29T07:33:24;7.10;;;6.40;;
8478;SDS011;4276;49.354;6.804;2023-01-29T07:35:50;6.83;;;6.33;;
8478;SDS011;4276;49.354;6.804;2023-01-29T07:38:17;7.30;;;6.70;;
8478;SDS011;4276;49.354;6.804;2023-01-29T07:40:44;9.17;;;8.37;;
8478;SDS011;4276;49.354;6.804;2023-01-29T07:43:10;9.57;;;8.77;;
8478;SDS011;4276;49.354;6.804;2023-01-29T07:45:37;9.97;;;9.00;;
8478;SDS011;4276;49.354;6.804;2023-01-29T07:48:05;9.37;;;8.60;;
8478;SDS011;4276;49.354;6.804;2023-01-29T07:50:33;9.93;;;8.97;;
8478;SDS011;4276;49.354;6.804;2023-01-29T07:53:00;11.70;;;10.67;;
8478;SDS011;4276;49.354;6.804;2023-01-29T07:55:27;11.43;;;10.30;;
8478;SDS011;4276;49.354;6.804;2023-01-29T07:57:54;13.73;;;12.43;;
8478;SDS011;4276;49.354;6.804;2023-01-29T08:00:24;13.47;;;12.17;;
8478;SDS011;4276;49.354;6.804;2023-01-29T08:02:50;14.80;;;13.23;;
8478;SDS011;4276;49.354;6.804;2023-01-29T08:05:17;13.93;;;12.63;;
8478;SDS011;4276;49.354;6.804;2023-01-29T08:07:44;11.77;;;10.47;;
8478;SDS011;4276;49.354;6.804;2023-01-29T08:10:22;12.80;;;11.50;;
8478;SDS011;4276;49.354;6.804;2023-01-29T08:12:58;12.63;;;11.53;;
8478;SDS011;4276;49.354;6.804;2023-01-29T08:15:26;11.73;;;10.63;;
8478;SDS011;4276;49.354;6.804;2023-01-29T08:17:53;11.10;;;10.00;;
8478;SDS011;4276;49.354;6.804;2023-01-29T08:20:23;10.93;;;9.93;;
8478;SDS011;4276;49.354;6.804;2023-01-29T08:22:56;11.77;;;10.70;;
8478;SDS011;4276;49.354;6.804;2023-01-29T08:25:27;10.47;;;9.57;;
8478;SDS011;4276;49.354;6.804;2023-01-29T08:27:57;10.43;;;9.43;;
8478;SDS011;4276;49.354;6.804;2023-01-29T08:30:25;11.40;;;10.30;;
8478;SDS011;4276;49.354;6.804;2023-01-29T08:32:53;11.07;;;10.07;;
8478;SDS011;4276;49.354;6.804;2023-01-29T08:35:20;13.17;;;11.77;;
8478;SDS011;4276;49.354;6.804;2023-01-29T08:37:57;11.73;;;10.60;;
8478;SDS011;4276;49.354;6.804;2023-01-29T08:40:29;12.07;;;10.83;;
8478;SDS011;4276;49.354;6.804;2023-01-29T08:43:00;11.57;;;10.47;;
8478;SDS011;4276;49.354;6.804;2023-01-29T08:45:30;10.70;;;9.70;;
8478;SDS011;4276;49.354;6.804;2023-01-29T08:47:59;9.43;;;8.63;;
8478;SDS011;4276;49.354;6.804;2023-01-29T08:50:26;9.80;;;8.93;;
8478;SDS011;4276;49.354;6.804;2023-01-29T08:52:55;9.40;;;8.50;;
8478;SDS011;4276;49.354;6.804;2023-01-29T08:55:25;9.40;;;8.53;;
8478;SDS011;4276;49.354;6.804;2023-01-29T08:57:52;9.87;;;8.97;;
8478;SDS011;4276;49.354;6.804;2023-01-29T09:00:19;9.40;;;8.57;;
8478;SDS011;4276;49.354;6.804;2023-01-29T09:02:46;9.57;;;8.70;;
8478;SDS011;4276;49.354;6.804;2023-01-29T09:05:12;9.60;;;8.60;;
8478;SDS011;4276;49.354;6.804;2023-01-29T09:07:39;10.13;;;9.10;;
8478;SDS011;4276;49.354;6.804;2023-01-29T09:10:06;9.37;;;8.57;;
8478;SDS011;4276;49.354;6.804;2023-01-29T09:12:33;8.77;;;7.93;;
8478;SDS011;4276;49.354;6.804;2023-01-29T09:14:59;8.40;;;7.60;;
8478;SDS011;4276;49.354;6.804;2023-01-29T09:17:26;8.60;;;7.77;;
8478;SDS011;4276;49.354;6.804;2023-01-29T09:19:52;8.13;;;7.33;;
8478;SDS011;4276;49.354;6.804;2023-01-29T09:22:19;8.83;;;7.97;;
8478;SDS011;4276;49.354;6.804;2023-01-29T09:24:45;7.40;;;6.80;;
8478;SDS011;4276;49.354;6.804;2023-01-29T09:27:12;7.87;;;7.10;;
8478;SDS011;4276;49.354;6.804;2023-01-29T09:29:38;7.47;;;6.87;;
8478;SDS011;4276;49.354;6.804;2023-01-29T09:32:05;7.20;;;6.60;;
8478;SDS011;4276;49.354;6.804;2023-01-29T09:34:32;7.57;;;6.97;;
8478;SDS011;4276;49.354;6.804;2023-01-29T09:36:58;8.43;;;7.67;;
8478;SDS011;4276;49.354;6.804;2023-01-29T09:39:25;7.67;;;7.00;;
8478;SDS011;4276;49.354;6.804;2023-01-29T09:41:54;8.20;;;7.40;;
8478;SDS011;4276;49.354;6.804;2023-01-29T09:47:29;7.77;;;7.03;;
8478;SDS011;4276;49.354;6.804;2023-01-29T09:55:09;7.20;;;6.60;;
8478;SDS011;4276;49.354;6.804;2023-01-29T09:57:43;8.37;;;7.67;;
8478;SDS011;4276;49.354;6.804;2023-01-29T10:00:13;7.73;;;7.03;;
8478;SDS011;4276;49.354;6.804;2023-01-29T10:05:44;9.40;;;8.50;;
8478;SDS011;4276;49.354;6.804;2023-01-29T10:25:54;8.37;;;7.63;;
8478;SDS011;4276;49.354;6.804;2023-01-29T10:30:53;8.40;;;6.83;;
8478;SDS011;4276;49.354;6.804;2023-01-29T10:33:29;7.03;;;6.40;;
8478;SDS011;4276;49.354;6.804;2023-01-29T10:36:32;10.00;;;6.60;;
8478;SDS011;4276;49.354;6.804;2023-01-29T10:39:12;7.97;;;7.10;;
8478;SDS011;4276;49.354;6.804;2023-01-29T10:41:47;9.63;;;7.70;;
8478;SDS011;4276;49.354;6.804;2023-01-29T10:56:00;7.80;;;7.10;;
8478;SDS011;4276;49.354;6.804;2023-01-29T10:59:07;7.27;;;6.57;;
8478;SDS011;4276;49.354;6.804;2023-01-29T11:01:34;7.30;;;6.60;;
8478;SDS011;4276;49.354;6.804;2023-01-29T11:04:02;7.30;;;6.60;;
8478;SDS011;4276;49.354;6.804;2023-01-29T11:06:34;7.27;;;6.67;;
8478;SDS011;4276;49.354;6.804;2023-01-29T11:14:14;6.47;;;5.97;;
8478;SDS011;4276;49.354;6.804;2023-01-29T11:16:45;6.73;;;6.23;;
8478;SDS011;4276;49.354;6.804;2023-01-29T11:19:13;7.17;;;6.57;;
8478;SDS011;4276;49.354;6.804;2023-01-29T11:24:16;7.43;;;6.73;;
8478;SDS011;4276;49.354;6.804;2023-01-29T11:26:45;8.33;;;7.53;;
8478;SDS011;4276;49.354;6.804;2023-01-29T11:29:33;8.40;;;7.70;;
8478;SDS011;4276;49.354;6.804;2023-01-29T11:32:04;9.30;;;8.40;;
8478;SDS011;4276;49.354;6.804;2023-01-29T11:34:32;9.80;;;8.50;;
8478;SDS011;4276;49.354;6.804;2023-01-29T11:36:59;9.18;;;8.27;;
8478;SDS011;4276;49.354;6.804;2023-01-29T11:39:28;9.33;;;8.43;;
8478;SDS011;4276;49.354;6.804;2023-01-29T11:41:56;8.15;;;7.45;;
8478;SDS011;4276;49.354;6.804;2023-01-29T11:44:27;9.67;;;8.67;;
8478;SDS011;4276;49.354;6.804;2023-01-29T11:46:58;9.88;;;9.07;;
8478;SDS011;4276;49.354;6.804;2023-01-29T11:49:37;10.23;;;9.20;;
8478;SDS011;4276;49.354;6.804;2023-01-29T11:52:06;10.23;;;9.15;;
8478;SDS011;4276;49.354;6.804;2023-01-29T11:54:39;9.65;;;8.85;;
8478;SDS011;4276;49.354;6.804;2023-01-29T11:57:18;10.68;;;9.55;;
8478;SDS011;4276;49.354;6.804;2023-01-29T11:59:49;10.13;;;9.23;;
8478;SDS011;4276;49.354;6.804;2023-01-29T12:02:28;10.07;;;9.18;;
8478;SDS011;4276;49.354;6.804;2023-01-29T12:05:02;9.57;;;8.77;;
8478;SDS011;4276;49.354;6.804;2023-01-29T12:07:31;10.82;;;9.85;;
8478;SDS011;4276;49.354;6.804;2023-01-29T12:09:58;11.55;;;10.32;;
8478;SDS011;4276;49.354;6.804;2023-01-29T12:17:46;8.85;;;8.15;;
8478;SDS011;4276;49.354;6.804;2023-01-29T12:20:17;8.48;;;7.68;;
8478;SDS011;4276;49.354;6.804;2023-01-29T12:23:00;8.82;;;8.02;;
8478;SDS011;4276;49.354;6.804;2023-01-29T12:25:39;9.38;;;8.57;;
8478;SDS011;4276;49.354;6.804;2023-01-29T12:28:30;9.23;;;8.43;;
8478;SDS011;4276;49.354;6.804;2023-01-29T12:36:43;9.70;;;8.80;;
8478;SDS011;4276;49.354;6.804;2023-01-29T12:39:18;10.05;;;9.25;;
8478;SDS011;4276;49.354;6.804;2023-01-29T12:42:31;9.20;;;8.40;;
8478;SDS011;4276;49.354;6.804;2023-01-29T12:44:47;9.40;;;8.70;;
8478;SDS011;4276;49.354;6.804;2023-01-29T12:47:26;10.57;;;9.68;;
8478;SDS011;4276;49.354;6.804;2023-01-29T12:49:57;10.95;;;10.05;;
8478;SDS011;4276;49.354;6.804;2023-01-29T12:52:33;10.23;;;9.43;;
8478;SDS011;4276;49.354;6.804;2023-01-29T12:55:02;10.25;;;9.45;;
8478;SDS011;4276;49.354;6.804;2023-01-29T13:00:24;10.88;;;9.98;;
8478;SDS011;4276;49.354;6.804;2023-01-29T13:05:37;10.95;;;10.05;;
8478;SDS011;4276;49.354;6.804;2023-01-29T13:08:07;10.95;;;10.05;;
8478;SDS011;4276;49.354;6.804;2023-01-29T13:10:37;10.23;;;9.30;;
8478;SDS011;4276;49.354;6.804;2023-01-29T13:15:39;10.35;;;9.50;;
8478;SDS011;4276;49.354;6.804;2023-01-29T13:20:55;10.95;;;9.98;;
8478;SDS011;4276;49.354;6.804;2023-01-29T13:23:24;10.93;;;9.85;;
8478;SDS011;4276;49.354;6.804;2023-01-29T13:25:55;11.02;;;10.13;;
8478;SDS011;4276;49.354;6.804;2023-01-29T13:28:23;11.15;;;10.25;;
8478;SDS011;4276;49.354;6.804;2023-01-29T13:31:08;12.15;;;11.05;;
8478;SDS011;4276;49.354;6.804;2023-01-29T13:33:59;12.27;;;11.07;;
8478;SDS011;4276;49.354;6.804;2023-01-29T13:36:29;12.70;;;11.40;;
8478;SDS011;4276;49.354;6.804;2023-01-29T13:39:06;12.98;;;11.77;;
8478;SDS011;4276;49.354;6.804;2023-01-29T13:41:34;11.48;;;10.48;;
8478;SDS011;4276;49.354;6.804;2023-01-29T13:44:07;12.63;;;10.93;;
8478;SDS011;4276;49.354;6.804;2023-01-29T13:46:46;11.68;;;10.68;;
8478;SDS011;4276;49.354;6.804;2023-01-29T13:49:21;11.93;;;10.82;;
8478;SDS011;4276;49.354;6.804;2023-01-29T13:51:51;11.98;;;10.88;;
8478;SDS011;4276;49.354;6.804;2023-01-29T13:54:19;11.93;;;10.82;;
8478;SDS011;4276;49.354;6.804;2023-01-29T13:59:21;12.60;;;11.40;;
8478;SDS011;4276;49.354;6.804;2023-01-29T14:06:52;13.52;;;12.32;;
8478;SDS011;4276;49.354;6.804;2023-01-29T14:17:24;13.32;;;12.18;;
8478;SDS011;4276;49.354;6.804;2023-01-29T14:19:52;12.88;;;11.68;;
8478;SDS011;4276;49.354;6.804;2023-01-29T14:22:43;15.80;;;14.20;;
8478;SDS011;4276;49.354;6.804;2023-01-29T14:25:19;13.82;;;12.57;;
8478;SDS011;4276;49.354;6.804;2023-01-29T14:27:47;13.70;;;12.37;;
8478;SDS011;4276;49.354;6.804;2023-01-29T14:30:15;12.75;;;11.55;;
8478;SDS011;4276;49.354;6.804;2023-01-29T14:32:45;12.73;;;11.50;;
8478;SDS011;4276;49.354;6.804;2023-01-29T14:35:21;12.57;;;11.43;;
8478;SDS011;4276;49.354;6.804;2023-01-29T14:37:50;13.37;;;12.00;;
8478;SDS011;4276;49.354;6.804;2023-01-29T14:45:37;14.73;;;13.17;;
8478;SDS011;4276;49.354;6.804;2023-01-29T14:48:50;15.43;;;13.93;;
8478;SDS011;4276;49.354;6.804;2023-01-29T14:51:05;15.03;;;13.53;;
8478;SDS011;4276;49.354;6.804;2023-01-29T14:53:50;14.47;;;12.97;;
8478;SDS011;4276;49.354;6.804;2023-01-29T14:56:31;15.33;;;13.70;;
8478;SDS011;4276;49.354;6.804;2023-01-29T14:59:09;14.67;;;13.17;;
8478;SDS011;4276;49.354;6.804;2023-01-29T15:01:38;13.70;;;12.40;;
8478;SDS011;4276;49.354;6.804;2023-01-29T15:04:28;15.90;;;14.13;;
8478;SDS011;4276;49.354;6.804;2023-01-29T15:07:00;15.63;;;14.03;;
8478;SDS011;4276;49.354;6.804;2023-01-29T15:09:41;15.65;;;13.80;;
8478;SDS011;4276;49.354;6.804;2023-01-29T15:12:32;16.43;;;14.73;;
8478;SDS011;4276;49.354;6.804;2023-01-29T15:15:07;15.30;;;13.77;;
8478;SDS011;4276;49.354;6.804;2023-01-29T15:17:58;16.10;;;14.50;;
8478;SDS011;4276;49.354;6.804;2023-01-29T15:20:34;14.77;;;13.27;;
8478;SDS011;4276;49.354;6.804;2023-01-29T15:23:02;15.77;;;14.17;;
8478;SDS011;4276;49.354;6.804;2023-01-29T15:25:33;15.10;;;13.60;;
8478;SDS011;4276;49.354;6.804;2023-01-29T15:28:01;15.13;;;13.63;;
8478;SDS011;4276;49.354;6.804;2023-01-29T15:30:33;15.07;;;13.63;;
8478;SDS011;4276;49.354;6.804;2023-01-29T15:33:00;16.03;;;14.33;;
8478;SDS011;4276;49.354;6.804;2023-01-29T15:37:59;15.07;;;13.50;;
8478;SDS011;4276;49.354;6.804;2023-01-29T15:40:33;15.83;;;13.90;;
8478;SDS011;4276;49.354;6.804;2023-01-29T15:42:59;14.60;;;13.13;;
8478;SDS011;4276;49.354;6.804;2023-01-29T15:50:29;14.90;;;13.40;;
8478;SDS011;4276;49.354;6.804;2023-01-29T15:52:56;15.20;;;13.60;;
8478;SDS011;4276;49.354;6.804;2023-01-29T15:55:23;14.90;;;13.40;;
8478;SDS011;4276;49.354;6.804;2023-01-29T15:57:51;15.27;;;13.73;;
8478;SDS011;4276;49.354;6.804;2023-01-29T16:00:21;15.10;;;13.60;;
8478;SDS011;4276;49.354;6.804;2023-01-29T16:02:49;15.10;;;13.40;;
8478;SDS011;4276;49.354;6.804;2023-01-29T16:05:21;14.93;;;13.33;;
8478;SDS011;4276;49.354;6.804;2023-01-29T16:07:51;17.27;;;14.37;;
8478;SDS011;4276;49.354;6.804;2023-01-29T16:10:21;16.30;;;14.50;;
8478;SDS011;4276;49.354;6.804;2023-01-29T16:12:50;15.30;;;13.73;;
8478;SDS011;4276;49.354;6.804;2023-01-29T16:15:27;16.10;;;13.63;;
8478;SDS011;4276;49.354;6.804;2023-01-29T16:17:58;15.63;;;13.90;;
8478;SDS011;4276;49.354;6.804;2023-01-29T16:20:29;14.80;;;13.40;;
8478;SDS011;4276;49.354;6.804;2023-01-29T16:22:57;17.30;;;14.23;;
8478;SDS011;4276;49.354;6.804;2023-01-29T16:25:23;15.13;;;13.53;;
8478;SDS011;4276;49.354;6.804;2023-01-29T16:27:50;15.10;;;13.70;;
8478;SDS011;4276;49.354;6.804;2023-01-29T16:30:17;15.60;;;13.77;;
8478;SDS011;4276;49.354;6.804;2023-01-29T16:32:43;15.87;;;13.20;;
8478;SDS011;4276;49.354;6.804;2023-01-29T16:35:14;17.60;;;14.17;;
8478;SDS011;4276;49.354;6.804;2023-01-29T16:37:45;15.03;;;13.50;;
8478;SDS011;4276;49.354;6.804;2023-01-29T16:40:14;14.27;;;12.83;;
8478;SDS011;4276;49.354;6.804;2023-01-29T16:42:47;14.80;;;12.87;;
8478;SDS011;4276;49.354;6.804;2023-01-29T16:51:14;14.73;;;13.23;;
8478;SDS011;4276;49.354;6.804;2023-01-29T16:53:56;14.37;;;12.87;;
8478;SDS011;4276;49.354;6.804;2023-01-29T16:56:28;14.30;;;12.90;;
8478;SDS011;4276;49.354;6.804;2023-01-29T16:58:56;14.30;;;12.80;;
8478;SDS011;4276;49.354;6.804;2023-01-29T17:01:23;15.60;;;14.10;;
8478;SDS011;4276;49.354;6.804;2023-01-29T17:03:56;14.93;;;13.43;;
8478;SDS011;4276;49.354;6.804;2023-01-29T17:06:31;14.77;;;13.27;;
8478;SDS011;4276;49.354;6.804;2023-01-29T17:08:57;14.40;;;13.00;;
8478;SDS011;4276;49.354;6.804;2023-01-29T17:11:32;16.00;;;14.40;;
8478;SDS011;4276;49.354;6.804;2023-01-29T17:14:01;15.27;;;13.73;;
8478;SDS011;4276;49.354;6.804;2023-01-29T17:16:32;15.63;;;14.07;;
8478;SDS011;4276;49.354;6.804;2023-01-29T17:19:00;15.97;;;14.47;;
8478;SDS011;4276;49.354;6.804;2023-01-29T17:21:29;16.37;;;14.73;;
8478;SDS011;4276;49.354;6.804;2023-01-29T17:23:56;16.13;;;14.33;;
8478;SDS011;4276;49.354;6.804;2023-01-29T17:26:22;16.67;;;14.87;;
8478;SDS011;4276;49.354;6.804;2023-01-29T17:28:50;15.57;;;13.97;;
8478;SDS011;4276;49.354;6.804;2023-01-29T17:31:16;16.30;;;14.53;;
8478;SDS011;4276;49.354;6.804;2023-01-29T17:33:43;17.53;;;15.70;;
8478;SDS011;4276;49.354;6.804;2023-01-29T17:36:12;18.20;;;16.37;;
8478;SDS011;4276;49.354;6.804;2023-01-29T17:38:40;16.97;;;15.27;;
8478;SDS011;4276;49.354;6.804;2023-01-29T17:43:45;17.30;;;15.50;;
8478;SDS011;4276;49.354;6.804;2023-01-29T17:46:13;17.43;;;15.73;;
8478;SDS011;4276;49.354;6.804;2023-01-29T17:48:41;18.00;;;16.07;;
8478;SDS011;4276;49.354;6.804;2023-01-29T17:51:09;17.03;;;15.27;;
8478;SDS011;4276;49.354;6.804;2023-01-29T17:53:38;17.87;;;16.07;;
8478;SDS011;4276;49.354;6.804;2023-01-29T17:56:15;20.20;;;18.10;;
8478;SDS011;4276;49.354;6.804;2023-01-29T17:58:42;22.90;;;20.43;;
8478;SDS011;4276;49.354;6.804;2023-01-29T18:01:09;24.70;;;22.07;;